sensor_id;sensor_type;location;lat;lon;timestamp;temperature;humidity
70107;DHT22;57473;37.508;15.080;2023-05-07T00:00:21;17.90;62.80
70107;DHT22;57473;37.508;15.080;2023-05-07T00:02:49;17.90;63.10
70107;DHT22;57473;37.508;15.080;2023-05-07T00:05:17;17.80;63.10
70107;DHT22;57473;37.508;15.080;2023-05-07T00:07:45;17.80;63.10
70107;DHT22;57473;37.508;15.080;2023-05-07T00:10:12;17.90;63.10
70107;DHT22;57473;37.508;15.080;2023-05-07T00:12:40;17.90;63.00
70107;DHT22;57473;37.508;15.080;2023-05-07T00:15:08;17.80;63.10
70107;DHT22;57473;37.508;15.080;2023-05-07T00:17:36;17.90;63.10
70107;DHT22;57473;37.508;15.080;2023-05-07T00:20:04;17.80;63.30
70107;DHT22;57473;37.508;15.080;2023-05-07T00:22:32;17.80;63.40
70107;DHT22;57473;37.508;15.080;2023-05-07T00:24:59;17.80;63.50
70107;DHT22;57473;37.508;15.080;2023-05-07T00:27:27;17.80;63.70
70107;DHT22;57473;37.508;15.080;2023-05-07T00:29:54;17.70;63.60
70107;DHT22;57473;37.508;15.080;2023-05-07T00:32:22;17.70;63.80
70107;DHT22;57473;37.508;15.080;2023-05-07T00:34:49;17.70;64.20
70107;DHT22;57473;37.508;15.080;2023-05-07T00:37:18;17.60;64.10
70107;DHT22;57473;37.508;15.080;2023-05-07T00:39:45;17.60;64.10
70107;DHT22;57473;37.508;15.080;2023-05-07T00:42:12;17.60;64.40
70107;DHT22;57473;37.508;15.080;2023-05-07T00:44:40;17.60;64.30
70107;DHT22;57473;37.508;15.080;2023-05-07T00:47:07;17.60;64.30
70107;DHT22;57473;37.508;15.080;2023-05-07T00:49:41;17.60;64.50
70107;DHT22;57473;37.508;15.080;2023-05-07T00:52:11;17.70;64.60
70107;DHT22;57473;37.508;15.080;2023-05-07T00:54:40;17.70;66.40
70107;DHT22;57473;37.508;15.080;2023-05-07T00:57:09;17.70;68.30
70107;DHT22;57473;37.508;15.080;2023-05-07T00:59:39;17.70;71.70
70107;DHT22;57473;37.508;15.080;2023-05-07T01:02:07;17.60;73.70
70107;DHT22;57473;37.508;15.080;2023-05-07T01:04:35;17.60;74.60
70107;DHT22;57473;37.508;15.080;2023-05-07T01:07:03;17.50;76.30
70107;DHT22;57473;37.508;15.080;2023-05-07T01:09:32;17.50;77.70
70107;DHT22;57473;37.508;15.080;2023-05-07T01:12:03;17.40;78.90
70107;DHT22;57473;37.508;15.080;2023-05-07T01:14:31;17.50;82.10
70107;DHT22;57473;37.508;15.080;2023-05-07T01:17:00;17.40;84.00
70107;DHT22;57473;37.508;15.080;2023-05-07T01:19:29;17.30;88.00
70107;DHT22;57473;37.508;15.080;2023-05-07T01:22:07;17.20;89.60
70107;DHT22;57473;37.508;15.080;2023-05-07T01:24:44;17.10;90.90
70107;DHT22;57473;37.508;15.080;2023-05-07T01:27:13;17.10;91.60
70107;DHT22;57473;37.508;15.080;2023-05-07T01:29:41;17.00;93.10
70107;DHT22;57473;37.508;15.080;2023-05-07T01:32:09;17.00;93.20
70107;DHT22;57473;37.508;15.080;2023-05-07T01:34:37;16.90;92.30
70107;DHT22;57473;37.508;15.080;2023-05-07T01:37:05;16.80;92.30
70107;DHT22;57473;37.508;15.080;2023-05-07T01:39:33;16.80;93.40
70107;DHT22;57473;37.508;15.080;2023-05-07T01:42:01;16.80;93.80
70107;DHT22;57473;37.508;15.080;2023-05-07T01:44:29;16.70;93.90
70107;DHT22;57473;37.508;15.080;2023-05-07T01:46:57;16.60;94.20
70107;DHT22;57473;37.508;15.080;2023-05-07T01:49:25;16.60;94.80
70107;DHT22;57473;37.508;15.080;2023-05-07T01:51:53;16.60;93.90
70107;DHT22;57473;37.508;15.080;2023-05-07T01:54:25;16.60;93.40
70107;DHT22;57473;37.508;15.080;2023-05-07T01:56:56;16.60;94.10
70107;DHT22;57473;37.508;15.080;2023-05-07T01:59:24;16.50;94.20
70107;DHT22;57473;37.508;15.080;2023-05-07T02:01:52;16.40;93.80
70107;DHT22;57473;37.508;15.080;2023-05-07T02:04:19;16.30;94.10
70107;DHT22;57473;37.508;15.080;2023-05-07T02:06:47;16.20;94.30
70107;DHT22;57473;37.508;15.080;2023-05-07T02:09:15;16.20;94.70
70107;DHT22;57473;37.508;15.080;2023-05-07T02:11:47;16.10;95.30
70107;DHT22;57473;37.508;15.080;2023-05-07T02:14:14;16.10;95.80
70107;DHT22;57473;37.508;15.080;2023-05-07T02:16:42;16.10;95.80
70107;DHT22;57473;37.508;15.080;2023-05-07T02:19:12;16.10;96.30
70107;DHT22;57473;37.508;15.080;2023-05-07T02:21:39;16.10;97.70
70107;DHT22;57473;37.508;15.080;2023-05-07T02:24:06;16.10;97.50
70107;DHT22;57473;37.508;15.080;2023-05-07T02:26:34;16.10;97.60
70107;DHT22;57473;37.508;15.080;2023-05-07T02:29:01;16.10;97.90
70107;DHT22;57473;37.508;15.080;2023-05-07T02:31:29;16.10;97.90
70107;DHT22;57473;37.508;15.080;2023-05-07T02:33:56;16.10;98.90
70107;DHT22;57473;37.508;15.080;2023-05-07T02:36:24;16.10;99.20
70107;DHT22;57473;37.508;15.080;2023-05-07T02:39:01;16.10;99.40
70107;DHT22;57473;37.508;15.080;2023-05-07T02:41:29;16.10;99.70
70107;DHT22;57473;37.508;15.080;2023-05-07T02:43:56;16.20;99.60
70107;DHT22;57473;37.508;15.080;2023-05-07T02:46:24;16.20;99.90
70107;DHT22;57473;37.508;15.080;2023-05-07T02:48:58;16.20;99.90
70107;DHT22;57473;37.508;15.080;2023-05-07T02:51:26;16.20;99.60
70107;DHT22;57473;37.508;15.080;2023-05-07T02:53:57;16.10;99.80
70107;DHT22;57473;37.508;15.080;2023-05-07T02:56:26;16.10;99.90
70107;DHT22;57473;37.508;15.080;2023-05-07T02:58:53;16.10;99.90
70107;DHT22;57473;37.508;15.080;2023-05-07T03:01:24;16.10;99.90
70107;DHT22;57473;37.508;15.080;2023-05-07T03:04:00;16.10;99.90
70107;DHT22;57473;37.508;15.080;2023-05-07T03:06:28;16.10;99.90
70107;DHT22;57473;37.508;15.080;2023-05-07T03:08:55;16.00;98.20
70107;DHT22;57473;37.508;15.080;2023-05-07T03:11:22;16.00;96.30
70107;DHT22;57473;37.508;15.080;2023-05-07T03:13:50;16.00;93.80
70107;DHT22;57473;37.508;15.080;2023-05-07T03:16:19;16.00;92.40
70107;DHT22;57473;37.508;15.080;2023-05-07T03:18:47;16.00;92.60
70107;DHT22;57473;37.508;15.080;2023-05-07T03:21:14;16.00;92.60
70107;DHT22;57473;37.508;15.080;2023-05-07T03:23:42;16.00;91.90
70107;DHT22;57473;37.508;15.080;2023-05-07T03:26:09;16.00;91.10
70107;DHT22;57473;37.508;15.080;2023-05-07T03:28:37;15.90;90.60
70107;DHT22;57473;37.508;15.080;2023-05-07T03:31:08;15.90;90.60
70107;DHT22;57473;37.508;15.080;2023-05-07T03:33:49;15.90;90.40
70107;DHT22;57473;37.508;15.080;2023-05-07T03:36:17;15.80;90.80
70107;DHT22;57473;37.508;15.080;2023-05-07T03:38:44;15.80;90.90
70107;DHT22;57473;37.508;15.080;2023-05-07T03:41:12;15.80;90.90
70107;DHT22;57473;37.508;15.080;2023-05-07T03:43:40;15.80;90.20
70107;DHT22;57473;37.508;15.080;2023-05-07T03:46:10;15.80;88.00
70107;DHT22;57473;37.508;15.080;2023-05-07T03:48:38;15.80;87.20
70107;DHT22;57473;37.508;15.080;2023-05-07T03:51:06;15.80;86.20
70107;DHT22;57473;37.508;15.080;2023-05-07T03:53:33;15.70;84.70
70107;DHT22;57473;37.508;15.080;2023-05-07T03:56:01;15.70;84.10
70107;DHT22;57473;37.508;15.080;2023-05-07T03:58:32;15.80;82.70
70107;DHT22;57473;37.508;15.080;2023-05-07T04:01:06;15.80;82.40
70107;DHT22;57473;37.508;15.080;2023-05-07T04:03:34;15.80;82.80
70107;DHT22;57473;37.508;15.080;2023-05-07T04:06:03;15.80;82.90
70107;DHT22;57473;37.508;15.080;2023-05-07T04:08:33;15.80;82.80
70107;DHT22;57473;37.508;15.080;2023-05-07T04:11:01;15.80;83.00
70107;DHT22;57473;37.508;15.080;2023-05-07T04:13:31;15.80;83.10
70107;DHT22;57473;37.508;15.080;2023-05-07T04:16:02;15.80;82.40
70107;DHT22;57473;37.508;15.080;2023-05-07T04:18:31;15.80;82.60
70107;DHT22;57473;37.508;15.080;2023-05-07T04:20:59;15.90;81.90
70107;DHT22;57473;37.508;15.080;2023-05-07T04:23:27;15.90;80.10
70107;DHT22;57473;37.508;15.080;2023-05-07T04:25:56;16.00;78.70
70107;DHT22;57473;37.508;15.080;2023-05-07T04:28:31;16.00;78.60
70107;DHT22;57473;37.508;15.080;2023-05-07T04:30:58;16.10;78.00
70107;DHT22;57473;37.508;15.080;2023-05-07T04:33:26;16.20;77.00
70107;DHT22;57473;37.508;15.080;2023-05-07T04:35:56;16.20;76.60
70107;DHT22;57473;37.508;15.080;2023-05-07T04:38:24;16.30;76.50
70107;DHT22;57473;37.508;15.080;2023-05-07T04:40:53;16.30;76.60
70107;DHT22;57473;37.508;15.080;2023-05-07T04:43:24;16.40;76.60
70107;DHT22;57473;37.508;15.080;2023-05-07T04:45:52;16.40;76.80
70107;DHT22;57473;37.508;15.080;2023-05-07T04:48:22;16.40;76.70
70107;DHT22;57473;37.508;15.080;2023-05-07T04:50:51;16.50;76.50
70107;DHT22;57473;37.508;15.080;2023-05-07T04:53:20;16.60;76.30
70107;DHT22;57473;37.508;15.080;2023-05-07T04:55:55;16.60;76.00
70107;DHT22;57473;37.508;15.080;2023-05-07T04:58:25;16.60;75.70
70107;DHT22;57473;37.508;15.080;2023-05-07T05:00:53;16.70;75.30
70107;DHT22;57473;37.508;15.080;2023-05-07T05:03:20;16.80;75.10
70107;DHT22;57473;37.508;15.080;2023-05-07T05:05:49;16.80;75.10
70107;DHT22;57473;37.508;15.080;2023-05-07T05:08:17;16.90;76.20
70107;DHT22;57473;37.508;15.080;2023-05-07T05:10:45;16.90;76.70
70107;DHT22;57473;37.508;15.080;2023-05-07T05:13:12;16.90;76.70
70107;DHT22;57473;37.508;15.080;2023-05-07T05:15:41;17.00;77.30
70107;DHT22;57473;37.508;15.080;2023-05-07T05:18:08;17.00;77.00
70107;DHT22;57473;37.508;15.080;2023-05-07T05:20:36;17.00;76.00
70107;DHT22;57473;37.508;15.080;2023-05-07T05:23:04;17.10;75.60
70107;DHT22;57473;37.508;15.080;2023-05-07T05:25:32;17.20;75.20
70107;DHT22;57473;37.508;15.080;2023-05-07T05:28:00;17.30;75.00
70107;DHT22;57473;37.508;15.080;2023-05-07T05:30:29;17.40;74.50
70107;DHT22;57473;37.508;15.080;2023-05-07T05:32:56;17.50;74.40
70107;DHT22;57473;37.508;15.080;2023-05-07T05:35:26;17.60;74.10
70107;DHT22;57473;37.508;15.080;2023-05-07T05:37:55;17.70;74.10
70107;DHT22;57473;37.508;15.080;2023-05-07T05:40:23;17.80;73.40
70107;DHT22;57473;37.508;15.080;2023-05-07T05:42:50;17.90;72.80
70107;DHT22;57473;37.508;15.080;2023-05-07T05:45:18;18.00;72.30
70107;DHT22;57473;37.508;15.080;2023-05-07T05:47:46;18.20;71.70
70107;DHT22;57473;37.508;15.080;2023-05-07T05:50:14;18.30;71.00
70107;DHT22;57473;37.508;15.080;2023-05-07T05:52:41;18.40;69.80
70107;DHT22;57473;37.508;15.080;2023-05-07T05:55:10;18.60;68.90
70107;DHT22;57473;37.508;15.080;2023-05-07T05:57:38;18.80;68.10
70107;DHT22;57473;37.508;15.080;2023-05-07T06:00:06;18.90;68.70
70107;DHT22;57473;37.508;15.080;2023-05-07T06:02:44;18.80;70.80
70107;DHT22;57473;37.508;15.080;2023-05-07T06:05:17;18.80;71.30
70107;DHT22;57473;37.508;15.080;2023-05-07T06:07:46;18.80;71.50
70107;DHT22;57473;37.508;15.080;2023-05-07T06:10:15;18.90;71.30
70107;DHT22;57473;37.508;15.080;2023-05-07T06:12:42;18.90;71.00
70107;DHT22;57473;37.508;15.080;2023-05-07T06:15:10;19.00;70.00
70107;DHT22;57473;37.508;15.080;2023-05-07T06:17:39;19.10;70.40
70107;DHT22;57473;37.508;15.080;2023-05-07T06:20:09;19.30;69.90
70107;DHT22;57473;37.508;15.080;2023-05-07T06:22:38;19.40;69.40
70107;DHT22;57473;37.508;15.080;2023-05-07T06:25:08;19.50;69.30
70107;DHT22;57473;37.508;15.080;2023-05-07T06:27:36;19.60;69.20
70107;DHT22;57473;37.508;15.080;2023-05-07T06:30:03;19.70;67.70
70107;DHT22;57473;37.508;15.080;2023-05-07T06:32:31;19.90;66.80
70107;DHT22;57473;37.508;15.080;2023-05-07T06:34:58;20.00;66.10
70107;DHT22;57473;37.508;15.080;2023-05-07T06:37:26;20.10;65.60
70107;DHT22;57473;37.508;15.080;2023-05-07T06:40:01;20.20;65.60
70107;DHT22;57473;37.508;15.080;2023-05-07T06:42:30;20.40;63.90
70107;DHT22;57473;37.508;15.080;2023-05-07T06:45:17;20.60;63.60
70107;DHT22;57473;37.508;15.080;2023-05-07T06:47:45;20.70;61.90
70107;DHT22;57473;37.508;15.080;2023-05-07T06:50:13;20.80;60.50
70107;DHT22;57473;37.508;15.080;2023-05-07T06:52:40;21.10;56.70
70107;DHT22;57473;37.508;15.080;2023-05-07T06:55:08;21.30;55.60
70107;DHT22;57473;37.508;15.080;2023-05-07T06:57:36;21.60;54.40
70107;DHT22;57473;37.508;15.080;2023-05-07T07:00:04;21.90;52.80
70107;DHT22;57473;37.508;15.080;2023-05-07T07:02:41;22.10;52.30
70107;DHT22;57473;37.508;15.080;2023-05-07T07:05:10;22.30;51.30
70107;DHT22;57473;37.508;15.080;2023-05-07T07:07:37;22.40;50.80
70107;DHT22;57473;37.508;15.080;2023-05-07T07:10:05;22.70;50.70
70107;DHT22;57473;37.508;15.080;2023-05-07T07:12:34;22.70;49.20
70107;DHT22;57473;37.508;15.080;2023-05-07T07:15:02;22.50;49.90
70107;DHT22;57473;37.508;15.080;2023-05-07T07:17:30;22.50;49.60
70107;DHT22;57473;37.508;15.080;2023-05-07T07:19:57;22.50;49.90
70107;DHT22;57473;37.508;15.080;2023-05-07T07:22:24;22.50;50.00
70107;DHT22;57473;37.508;15.080;2023-05-07T07:24:52;22.60;49.60
70107;DHT22;57473;37.508;15.080;2023-05-07T07:27:19;22.90;48.70
70107;DHT22;57473;37.508;15.080;2023-05-07T07:29:47;23.00;48.60
70107;DHT22;57473;37.508;15.080;2023-05-07T07:32:14;23.10;48.30
70107;DHT22;57473;37.508;15.080;2023-05-07T07:34:42;23.00;48.50
70107;DHT22;57473;37.508;15.080;2023-05-07T07:37:09;23.10;49.10
70107;DHT22;57473;37.508;15.080;2023-05-07T07:39:37;23.20;47.20
70107;DHT22;57473;37.508;15.080;2023-05-07T07:42:06;23.20;46.80
70107;DHT22;57473;37.508;15.080;2023-05-07T07:44:34;23.20;47.10
70107;DHT22;57473;37.508;15.080;2023-05-07T07:47:06;23.20;46.30
70107;DHT22;57473;37.508;15.080;2023-05-07T07:49:34;23.30;46.50
70107;DHT22;57473;37.508;15.080;2023-05-07T07:52:05;23.30;46.50
70107;DHT22;57473;37.508;15.080;2023-05-07T07:54:35;23.30;46.80
70107;DHT22;57473;37.508;15.080;2023-05-07T07:57:05;23.40;47.60
70107;DHT22;57473;37.508;15.080;2023-05-07T07:59:33;23.60;46.90
70107;DHT22;57473;37.508;15.080;2023-05-07T08:02:01;23.80;46.30
70107;DHT22;57473;37.508;15.080;2023-05-07T08:04:29;23.90;45.40
70107;DHT22;57473;37.508;15.080;2023-05-07T08:07:01;23.90;45.20
70107;DHT22;57473;37.508;15.080;2023-05-07T08:09:30;24.10;45.00
70107;DHT22;57473;37.508;15.080;2023-05-07T08:11:59;24.10;44.80
70107;DHT22;57473;37.508;15.080;2023-05-07T08:14:31;24.30;44.60
70107;DHT22;57473;37.508;15.080;2023-05-07T08:16:58;24.30;44.10
70107;DHT22;57473;37.508;15.080;2023-05-07T08:19:27;24.30;44.10
70107;DHT22;57473;37.508;15.080;2023-05-07T08:21:54;24.40;44.60
70107;DHT22;57473;37.508;15.080;2023-05-07T08:24:24;24.40;43.60
70107;DHT22;57473;37.508;15.080;2023-05-07T08:26:52;24.40;43.40
70107;DHT22;57473;37.508;15.080;2023-05-07T08:29:19;24.70;43.20
70107;DHT22;57473;37.508;15.080;2023-05-07T08:31:47;24.90;42.50
70107;DHT22;57473;37.508;15.080;2023-05-07T08:34:14;25.10;41.90
70107;DHT22;57473;37.508;15.080;2023-05-07T08:36:44;25.20;40.60
70107;DHT22;57473;37.508;15.080;2023-05-07T08:39:16;25.30;40.40
70107;DHT22;57473;37.508;15.080;2023-05-07T08:41:48;25.50;38.50
70107;DHT22;57473;37.508;15.080;2023-05-07T08:44:16;25.70;38.60
70107;DHT22;57473;37.508;15.080;2023-05-07T08:46:46;25.70;39.20
70107;DHT22;57473;37.508;15.080;2023-05-07T08:49:20;25.50;39.70
70107;DHT22;57473;37.508;15.080;2023-05-07T08:51:48;25.30;39.90
70107;DHT22;57473;37.508;15.080;2023-05-07T08:54:18;25.50;38.00
70107;DHT22;57473;37.508;15.080;2023-05-07T08:56:49;25.70;38.40
70107;DHT22;57473;37.508;15.080;2023-05-07T08:59:18;26.10;38.90
70107;DHT22;57473;37.508;15.080;2023-05-07T09:01:49;26.30;39.90
70107;DHT22;57473;37.508;15.080;2023-05-07T09:04:18;26.20;40.80
70107;DHT22;57473;37.508;15.080;2023-05-07T09:06:46;26.40;41.00
70107;DHT22;57473;37.508;15.080;2023-05-07T09:09:17;26.50;39.90
70107;DHT22;57473;37.508;15.080;2023-05-07T09:11:46;26.60;38.90
70107;DHT22;57473;37.508;15.080;2023-05-07T09:14:17;26.60;39.30
70107;DHT22;57473;37.508;15.080;2023-05-07T09:16:52;26.50;39.20
70107;DHT22;57473;37.508;15.080;2023-05-07T09:19:28;26.50;39.10
70107;DHT22;57473;37.508;15.080;2023-05-07T09:22:05;26.20;38.90
70107;DHT22;57473;37.508;15.080;2023-05-07T09:24:51;26.00;40.20
70107;DHT22;57473;37.508;15.080;2023-05-07T09:27:22;25.80;40.80
70107;DHT22;57473;37.508;15.080;2023-05-07T09:29:51;25.80;40.70
70107;DHT22;57473;37.508;15.080;2023-05-07T09:32:19;25.70;41.50
70107;DHT22;57473;37.508;15.080;2023-05-07T09:34:46;25.60;42.70
70107;DHT22;57473;37.508;15.080;2023-05-07T09:37:22;25.60;43.30
70107;DHT22;57473;37.508;15.080;2023-05-07T09:39:50;25.40;41.90
70107;DHT22;57473;37.508;15.080;2023-05-07T09:42:23;25.30;41.60
70107;DHT22;57473;37.508;15.080;2023-05-07T09:44:59;25.30;41.60
70107;DHT22;57473;37.508;15.080;2023-05-07T09:47:34;25.40;41.20
70107;DHT22;57473;37.508;15.080;2023-05-07T09:50:05;25.30;41.30
70107;DHT22;57473;37.508;15.080;2023-05-07T09:52:40;25.10;43.20
70107;DHT22;57473;37.508;15.080;2023-05-07T09:55:09;25.00;43.80
70107;DHT22;57473;37.508;15.080;2023-05-07T09:57:43;25.10;44.20
70107;DHT22;57473;37.508;15.080;2023-05-07T10:00:26;24.80;45.00
70107;DHT22;57473;37.508;15.080;2023-05-07T10:03:03;24.50;45.40
70107;DHT22;57473;37.508;15.080;2023-05-07T10:05:40;24.30;46.30
70107;DHT22;57473;37.508;15.080;2023-05-07T10:08:16;24.10;46.50
70107;DHT22;57473;37.508;15.080;2023-05-07T10:10:46;23.80;52.50
70107;DHT22;57473;37.508;15.080;2023-05-07T10:13:27;23.20;53.60
70107;DHT22;57473;37.508;15.080;2023-05-07T10:15:59;23.00;54.20
70107;DHT22;57473;37.508;15.080;2023-05-07T10:18:34;22.80;54.80
70107;DHT22;57473;37.508;15.080;2023-05-07T10:21:14;23.00;54.70
70107;DHT22;57473;37.508;15.080;2023-05-07T10:23:50;23.20;55.00
70107;DHT22;57473;37.508;15.080;2023-05-07T10:26:20;23.30;54.90
70107;DHT22;57473;37.508;15.080;2023-05-07T10:28:54;23.50;54.60
70107;DHT22;57473;37.508;15.080;2023-05-07T10:31:48;23.40;54.70
70107;DHT22;57473;37.508;15.080;2023-05-07T10:34:21;23.40;55.60
70107;DHT22;57473;37.508;15.080;2023-05-07T10:36:50;23.40;53.20
70107;DHT22;57473;37.508;15.080;2023-05-07T10:39:20;23.00;55.20
70107;DHT22;57473;37.508;15.080;2023-05-07T10:41:48;23.00;55.20
70107;DHT22;57473;37.508;15.080;2023-05-07T10:44:32;22.80;54.10
70107;DHT22;57473;37.508;15.080;2023-05-07T10:47:10;23.00;53.70
70107;DHT22;57473;37.508;15.080;2023-05-07T10:52:24;23.50;53.00
70107;DHT22;57473;37.508;15.080;2023-05-07T10:58:22;23.20;49.50
70107;DHT22;57473;37.508;15.080;2023-05-07T11:01:01;23.80;51.80
70107;DHT22;57473;37.508;15.080;2023-05-07T11:07:38;24.90;48.90
70107;DHT22;57473;37.508;15.080;2023-05-07T11:10:17;25.40;48.90
70107;DHT22;57473;37.508;15.080;2023-05-07T11:12:54;25.60;48.20
70107;DHT22;57473;37.508;15.080;2023-05-07T11:15:48;25.90;47.90
70107;DHT22;57473;37.508;15.080;2023-05-07T11:18:50;26.30;45.90
70107;DHT22;57473;37.508;15.080;2023-05-07T11:21:40;26.30;46.60
70107;DHT22;57473;37.508;15.080;2023-05-07T11:24:17;26.20;47.50
70107;DHT22;57473;37.508;15.080;2023-05-07T11:26:59;26.00;48.10
70107;DHT22;57473;37.508;15.080;2023-05-07T11:29:33;26.10;48.60
70107;DHT22;57473;37.508;15.080;2023-05-07T11:32:08;26.30;48.50
70107;DHT22;57473;37.508;15.080;2023-05-07T11:34:52;25.70;49.90
70107;DHT22;57473;37.508;15.080;2023-05-07T11:37:25;26.40;47.40
70107;DHT22;57473;37.508;15.080;2023-05-07T11:40:08;26.70;48.40
70107;DHT22;57473;37.508;15.080;2023-05-07T11:42:41;26.50;46.60
70107;DHT22;57473;37.508;15.080;2023-05-07T11:45:10;26.50;47.10
70107;DHT22;57473;37.508;15.080;2023-05-07T11:47:41;27.20;45.30
70107;DHT22;57473;37.508;15.080;2023-05-07T11:50:11;27.10;46.00
70107;DHT22;57473;37.508;15.080;2023-05-07T11:52:39;27.10;46.50
70107;DHT22;57473;37.508;15.080;2023-05-07T11:55:10;27.90;44.00
70107;DHT22;57473;37.508;15.080;2023-05-07T11:57:40;28.20;42.80
70107;DHT22;57473;37.508;15.080;2023-05-07T12:00:10;27.80;44.40
70107;DHT22;57473;37.508;15.080;2023-05-07T12:02:40;27.40;44.90
70107;DHT22;57473;37.508;15.080;2023-05-07T12:08:39;27.50;43.20
70107;DHT22;57473;37.508;15.080;2023-05-07T12:11:23;28.10;41.70
70107;DHT22;57473;37.508;15.080;2023-05-07T12:13:54;28.10;42.30
70107;DHT22;57473;37.508;15.080;2023-05-07T12:16:27;28.00;42.20
70107;DHT22;57473;37.508;15.080;2023-05-07T12:18:59;27.10;44.10
70107;DHT22;57473;37.508;15.080;2023-05-07T12:21:26;26.90;44.80
70107;DHT22;57473;37.508;15.080;2023-05-07T12:23:57;27.30;44.20
70107;DHT22;57473;37.508;15.080;2023-05-07T12:26:54;27.00;44.10
70107;DHT22;57473;37.508;15.080;2023-05-07T12:29:22;27.80;43.20
70107;DHT22;57473;37.508;15.080;2023-05-07T12:32:03;28.20;43.50
70107;DHT22;57473;37.508;15.080;2023-05-07T12:34:50;28.60;42.60
70107;DHT22;57473;37.508;15.080;2023-05-07T12:37:24;28.60;42.10
70107;DHT22;57473;37.508;15.080;2023-05-07T12:40:10;29.00;41.80
70107;DHT22;57473;37.508;15.080;2023-05-07T12:42:41;28.70;42.80
70107;DHT22;57473;37.508;15.080;2023-05-07T12:45:13;28.70;41.90
70107;DHT22;57473;37.508;15.080;2023-05-07T12:47:44;29.30;41.60
70107;DHT22;57473;37.508;15.080;2023-05-07T12:50:13;28.90;41.80
70107;DHT22;57473;37.508;15.080;2023-05-07T12:52:42;28.20;43.00
70107;DHT22;57473;37.508;15.080;2023-05-07T12:55:14;27.90;44.60
70107;DHT22;57473;37.508;15.080;2023-05-07T12:57:51;28.20;43.80
70107;DHT22;57473;37.508;15.080;2023-05-07T13:00:36;27.60;45.40
70107;DHT22;57473;37.508;15.080;2023-05-07T13:03:05;27.70;45.00
70107;DHT22;57473;37.508;15.080;2023-05-07T13:05:37;27.50;45.60
70107;DHT22;57473;37.508;15.080;2023-05-07T13:08:04;27.30;45.30
70107;DHT22;57473;37.508;15.080;2023-05-07T13:10:32;27.20;46.40
70107;DHT22;57473;37.508;15.080;2023-05-07T13:13:01;27.90;44.90
70107;DHT22;57473;37.508;15.080;2023-05-07T13:15:28;28.40;44.10
70107;DHT22;57473;37.508;15.080;2023-05-07T13:17:55;28.90;43.00
70107;DHT22;57473;37.508;15.080;2023-05-07T13:20:23;27.50;45.40
70107;DHT22;57473;37.508;15.080;2023-05-07T13:22:51;27.50;45.80
70107;DHT22;57473;37.508;15.080;2023-05-07T13:25:18;26.90;46.30
70107;DHT22;57473;37.508;15.080;2023-05-07T13:27:45;27.00;46.20
70107;DHT22;57473;37.508;15.080;2023-05-07T13:30:22;27.40;45.30
70107;DHT22;57473;37.508;15.080;2023-05-07T13:32:50;28.10;44.40
70107;DHT22;57473;37.508;15.080;2023-05-07T13:35:19;27.30;45.60
70107;DHT22;57473;37.508;15.080;2023-05-07T13:37:49;27.10;45.80
70107;DHT22;57473;37.508;15.080;2023-05-07T13:40:16;26.50;47.00
70107;DHT22;57473;37.508;15.080;2023-05-07T13:42:44;25.90;47.60
70107;DHT22;57473;37.508;15.080;2023-05-07T13:45:14;26.90;45.50
70107;DHT22;57473;37.508;15.080;2023-05-07T13:47:44;27.70;44.20
70107;DHT22;57473;37.508;15.080;2023-05-07T13:50:18;28.30;43.10
70107;DHT22;57473;37.508;15.080;2023-05-07T13:52:46;28.00;43.40
70107;DHT22;57473;37.508;15.080;2023-05-07T13:55:21;27.80;43.00
70107;DHT22;57473;37.508;15.080;2023-05-07T13:58:00;28.00;42.90
70107;DHT22;57473;37.508;15.080;2023-05-07T14:00:33;28.90;40.10
70107;DHT22;57473;37.508;15.080;2023-05-07T14:03:01;28.90;40.00
70107;DHT22;57473;37.508;15.080;2023-05-07T14:05:32;28.40;39.70
70107;DHT22;57473;37.508;15.080;2023-05-07T14:07:59;28.40;40.00
70107;DHT22;57473;37.508;15.080;2023-05-07T14:10:28;27.70;40.70
70107;DHT22;57473;37.508;15.080;2023-05-07T14:12:56;28.20;40.30
70107;DHT22;57473;37.508;15.080;2023-05-07T14:15:23;28.40;39.70
70107;DHT22;57473;37.508;15.080;2023-05-07T14:17:51;27.60;40.10
70107;DHT22;57473;37.508;15.080;2023-05-07T14:20:18;27.30;41.30
70107;DHT22;57473;37.508;15.080;2023-05-07T14:22:46;26.40;43.00
70107;DHT22;57473;37.508;15.080;2023-05-07T14:25:13;26.30;43.10
70107;DHT22;57473;37.508;15.080;2023-05-07T14:27:46;25.50;44.50
70107;DHT22;57473;37.508;15.080;2023-05-07T14:30:14;25.10;45.00
70107;DHT22;57473;37.508;15.080;2023-05-07T14:32:47;25.30;44.60
70107;DHT22;57473;37.508;15.080;2023-05-07T14:35:16;25.00;45.30
70107;DHT22;57473;37.508;15.080;2023-05-07T14:37:44;25.10;45.10
70107;DHT22;57473;37.508;15.080;2023-05-07T14:40:12;24.70;45.80
70107;DHT22;57473;37.508;15.080;2023-05-07T14:42:41;24.50;46.10
70107;DHT22;57473;37.508;15.080;2023-05-07T14:45:08;24.00;47.30
70107;DHT22;57473;37.508;15.080;2023-05-07T14:47:36;23.60;47.50
70107;DHT22;57473;37.508;15.080;2023-05-07T14:50:04;23.70;47.60
70107;DHT22;57473;37.508;15.080;2023-05-07T14:52:32;24.00;47.10
70107;DHT22;57473;37.508;15.080;2023-05-07T14:54:59;24.10;47.00
70107;DHT22;57473;37.508;15.080;2023-05-07T14:57:26;24.30;46.10
70107;DHT22;57473;37.508;15.080;2023-05-07T14:59:58;24.50;46.10
70107;DHT22;57473;37.508;15.080;2023-05-07T15:02:25;24.30;46.20
70107;DHT22;57473;37.508;15.080;2023-05-07T15:04:53;23.80;47.00
70107;DHT22;57473;37.508;15.080;2023-05-07T15:07:20;23.80;46.90
70107;DHT22;57473;37.508;15.080;2023-05-07T15:09:48;23.90;46.90
70107;DHT22;57473;37.508;15.080;2023-05-07T15:12:15;24.10;46.80
70107;DHT22;57473;37.508;15.080;2023-05-07T15:14:42;24.40;45.80
70107;DHT22;57473;37.508;15.080;2023-05-07T15:17:10;24.60;45.60
70107;DHT22;57473;37.508;15.080;2023-05-07T15:19:38;24.70;45.20
70107;DHT22;57473;37.508;15.080;2023-05-07T15:22:05;24.70;45.20
70107;DHT22;57473;37.508;15.080;2023-05-07T15:24:34;24.70;44.80
70107;DHT22;57473;37.508;15.080;2023-05-07T15:27:02;24.30;45.80
70107;DHT22;57473;37.508;15.080;2023-05-07T15:29:30;24.20;46.40
70107;DHT22;57473;37.508;15.080;2023-05-07T15:31:59;24.30;46.00
70107;DHT22;57473;37.508;15.080;2023-05-07T15:34:27;24.40;46.60
70107;DHT22;57473;37.508;15.080;2023-05-07T15:36:55;24.40;46.00
70107;DHT22;57473;37.508;15.080;2023-05-07T15:39:24;24.50;45.70
70107;DHT22;57473;37.508;15.080;2023-05-07T15:41:51;24.70;45.30
70107;DHT22;57473;37.508;15.080;2023-05-07T15:44:19;24.30;45.90
70107;DHT22;57473;37.508;15.080;2023-05-07T15:46:46;24.30;46.10